createdAt,value
2022-09-05T01:33:06.373Z,69.40
2022-09-05T01:37:33.593Z,69.20
2022-09-05T03:23:34.342Z,71.10
2022-09-05T03:57:11.773Z,71.60
2022-09-05T04:00:40.427Z,70.70
2022-09-05T04:08:11.497Z,70.90
2022-09-05T04:09:09.698Z,71.60
2022-09-05T04:23:16.778Z,71.80
2022-09-05T05:18:10.906Z,72.80
2022-09-05T05:19:05.122Z,72.60
2022-09-05T05:23:35.844Z,72.80
2022-09-05T05:26:55.895Z,72.90
2022-09-05T05:30:35.839Z,72.60
2022-09-05T05:33:54.348Z,72.60
2022-09-05T05:41:57.507Z,72.90
2022-09-05T05:46:22.998Z,73.30
2022-09-05T06:04:24.986Z,73.50
2022-09-05T06:14:59.472Z,74.10
2022-09-05T06:22:08.690Z,74.40
2022-09-05T06:30:46.231Z,74.10
2022-09-05T06:35:05.143Z,74.50
2022-09-05T07:58:13.638Z,76.40
2022-09-05T08:01:01.198Z,75.70
2022-09-05T08:03:56.171Z,75.50
2022-09-05T08:07:47.116Z,75.80
2022-09-05T08:10:08.203Z,75.70
2022-09-05T08:13:24.144Z,75.70
2022-09-05T08:16:19.491Z,75.50
2022-09-05T08:20:08.538Z,74.80
2022-09-05T08:23:07.360Z,74.30
2022-09-05T08:26:04.496Z,73.60
2022-09-05T08:29:02.909Z,72.50
2022-09-05T08:31:55.607Z,72.00
2022-09-05T08:34:49.673Z,72.40
2022-09-05T08:37:38.658Z,72.30
2022-09-05T08:40:32.202Z,71.90
2022-09-05T08:46:36.041Z,71.40
2022-09-05T08:46:51.665Z,71.20
2022-09-05T08:50:13.000Z,72.10
2022-09-05T08:53:28.151Z,71.40
2022-09-05T08:56:26.093Z,70.90
2022-09-05T08:59:33.073Z,70.70
2022-09-05T09:03:03.930Z,68.60
2022-09-05T09:06:40.354Z,70.70
2022-09-05T09:09:43.508Z,69.60
2022-09-05T09:13:08.655Z,69.50
2022-09-05T09:16:06.635Z,69.50
2022-09-05T09:19:10.511Z,69.20
2022-09-05T09:22:10.697Z,69.60
2022-09-05T09:25:15.890Z,69.80
2022-09-05T09:28:51.440Z,68.90
2022-09-05T09:32:01.172Z,68.10
2022-09-05T09:35:06.109Z,69.10
2022-09-05T09:38:31.898Z,69.20
2022-09-05T09:41:57.157Z,68.80
2022-09-05T09:45:22.534Z,65.60
2022-09-05T09:49:09.561Z,66.00
2022-09-05T09:52:56.440Z,67.40
2022-09-05T09:56:50.352Z,67.70
2022-09-05T10:00:11.300Z,67.40
2022-09-05T10:10:35.840Z,66.10
2022-09-05T10:10:50.235Z,64.80
2022-09-05T10:11:54.936Z,64.40
2022-09-05T10:15:23.200Z,65.40
2022-09-05T10:18:41.241Z,65.40
2022-09-05T10:25:48.459Z,66.40
2022-09-05T10:28:42.819Z,65.50
2022-09-05T10:35:09.784Z,65.80
2022-09-05T10:35:23.678Z,65.80
2022-09-05T10:38:15.384Z,64.50
2022-09-05T10:41:20.718Z,65.60
2022-09-05T10:44:13.544Z,65.60
2022-09-05T10:47:18.854Z,64.40
2022-09-05T10:50:24.583Z,64.30
2022-09-05T10:53:39.328Z,63.40
2022-09-05T10:56:35.395Z,64.50
2022-09-05T11:02:15.702Z,65.00
2022-09-05T11:02:47.318Z,62.10
2022-09-05T11:05:39.940Z,61.90
2022-09-05T11:08:38.423Z,61.10
2022-09-05T11:11:34.588Z,62.40
2022-09-05T11:14:49.321Z,61.90
2022-09-05T11:17:43.194Z,62.10
2022-09-05T11:20:46.211Z,61.60
2022-09-05T11:23:40.424Z,60.30
2022-09-05T11:26:42.311Z,60.70
2022-09-05T11:29:37.887Z,62.30
2022-09-05T11:39:19.486Z,59.70
2022-09-05T11:39:54.893Z,58.80
2022-09-05T11:40:59.152Z,60.50
2022-09-05T11:44:25.611Z,58.70
2022-09-05T11:48:06.278Z,60.40
2022-09-05T11:51:51.854Z,60.00
2022-09-05T11:55:21.043Z,58.90
2022-09-05T11:58:45.996Z,59.60
2022-09-05T12:01:44.834Z,59.90
2022-09-05T12:05:48.965Z,58.10
2022-09-05T12:08:06.394Z,58.20
2022-09-05T12:11:09.878Z,57.00
2022-09-05T12:14:20.915Z,58.00
2022-09-05T12:20:43.787Z,57.40
2022-09-05T12:24:28.504Z,56.00
2022-09-05T12:27:44.916Z,56.10
2022-09-05T12:30:16.336Z,55.80
2022-09-05T12:36:08.578Z,57.60
2022-09-05T12:40:53.948Z,57.00
2022-09-05T12:40:58.169Z,56.50
2022-09-05T12:42:08.264Z,57.80
2022-09-05T12:43:57.434Z,56.30
2022-09-05T12:46:24.292Z,56.00
2022-09-05T12:49:34.980Z,55.80
2022-09-05T12:52:42.426Z,57.10
2022-09-05T12:55:36.438Z,57.90
2022-09-05T13:03:01.614Z,56.10
2022-09-05T13:03:11.562Z,57.40
2022-09-05T13:05:01.781Z,56.00
2022-09-05T13:07:56.253Z,56.00
2022-09-05T13:14:48.187Z,54.60
2022-09-05T13:15:01.976Z,54.80
2022-09-05T13:17:07.536Z,55.70
2022-09-05T13:19:57.023Z,55.10
2022-09-05T13:22:48.741Z,56.40
2022-09-05T13:25:37.889Z,55.80
2022-09-05T13:28:36.072Z,55.50
2022-09-05T13:37:54.326Z,55.70
2022-09-05T13:38:12.464Z,54.90
2022-09-05T13:38:49.289Z,54.30
2022-09-05T13:41:28.743Z,54.70
2022-09-05T13:44:25.574Z,56.90
2022-09-05T13:46:58.982Z,54.80
2022-09-05T13:49:35.233Z,54.40
2022-09-05T13:52:35.722Z,54.60
2022-09-05T13:55:24.192Z,55.30
2022-09-05T13:57:59.873Z,55.30
2022-09-05T14:01:35.009Z,53.80
2022-09-05T14:05:05.947Z,53.60
2022-09-05T14:08:23.624Z,55.20
2022-09-05T14:11:31.317Z,55.10
2022-09-05T14:14:11.282Z,55.30
2022-09-05T14:16:54.267Z,54.80
2022-09-05T14:19:43.422Z,54.10
2022-09-05T14:22:33.494Z,54.50
2022-09-05T14:25:07.824Z,54.30
2022-09-05T14:27:45.325Z,54.20
2022-09-05T14:32:07.929Z,53.10
2022-09-05T14:37:42.187Z,53.20
2022-09-05T14:37:49.292Z,52.40
2022-09-05T14:40:30.451Z,54.20
2022-09-05T14:43:33.896Z,52.60
2022-09-05T14:46:35.094Z,52.00
2022-09-05T14:49:40.069Z,54.50
2022-09-05T14:52:20.325Z,54.10
2022-09-05T15:02:41.618Z,55.10
2022-09-05T15:02:49.219Z,52.50
2022-09-05T15:06:40.580Z,51.30
2022-09-05T15:11:25.933Z,53.20
2022-09-05T15:12:34.038Z,53.40
2022-09-05T15:15:25.950Z,52.40
2022-09-05T15:18:00.537Z,51.60
2022-09-05T15:20:35.848Z,52.10
2022-09-05T15:23:11.154Z,53.70
2022-09-05T15:25:49.327Z,51.90
2022-09-05T15:28:21.648Z,54.00
2022-09-05T15:31:01.652Z,53.20
2022-09-05T15:33:32.708Z,54.20
2022-09-05T15:36:04.258Z,53.10
2022-09-05T15:38:48.928Z,54.90
2022-09-05T15:41:27.179Z,54.30
2022-09-05T15:44:03.832Z,54.20
2022-09-05T15:46:49.406Z,53.40
2022-09-05T15:49:33.845Z,53.60
2022-09-05T15:52:06.444Z,53.90
2022-09-05T15:54:40.614Z,54.50
2022-09-05T15:57:17.441Z,53.20
2022-09-05T15:59:52.608Z,53.60
2022-09-05T16:02:28.254Z,53.80
2022-09-05T16:10:34.419Z,53.50
2022-09-05T16:10:35.541Z,52.80
2022-09-05T16:14:39.533Z,53.10
2022-09-05T16:23:13.779Z,53.70
2022-09-05T16:23:32.676Z,53.00
2022-09-05T16:23:39.537Z,52.70
2022-09-05T16:26:13.173Z,54.40
2022-09-05T16:28:52.614Z,53.30
2022-09-05T16:31:29.729Z,53.50
2022-09-05T16:34:00.957Z,54.20
2022-09-05T16:36:53.186Z,54.40
2022-09-05T16:39:42.755Z,54.40
2022-09-05T16:42:20.400Z,54.40
2022-09-05T16:44:59.974Z,53.60
2022-09-05T16:47:36.511Z,53.20
2022-09-05T16:50:23.990Z,53.50
2022-09-05T16:53:28.348Z,55.20
2022-09-05T16:56:03.473Z,54.20
2022-09-05T16:58:38.598Z,53.60
2022-09-05T17:01:29.399Z,54.20
2022-09-05T17:04:08.052Z,54.40
2022-09-05T17:06:55.068Z,54.40
2022-09-05T17:09:28.569Z,55.40
2022-09-05T17:12:02.136Z,57.10
2022-09-05T17:14:38.007Z,59.60
2022-09-05T17:18:04.610Z,93.30
2022-09-05T17:20:14.608Z,99.90
2022-09-05T17:25:58.553Z,99.90
2022-09-05T17:29:30.533Z,99.90
2022-09-05T17:29:49.644Z,99.90
2022-09-05T17:32:00.184Z,99.90
2022-09-05T17:35:18.627Z,99.90
2022-09-05T17:38:24.130Z,99.90
2022-09-05T17:41:37.024Z,99.90
2022-09-05T17:44:18.074Z,99.90
2022-09-05T17:47:07.382Z,99.90
2022-09-05T17:49:46.401Z,99.90
2022-09-05T17:52:23.427Z,99.90
2022-09-05T17:54:57.499Z,99.90
2022-09-05T17:57:41.376Z,99.90
2022-09-05T18:00:59.354Z,99.90
2022-09-05T18:04:14.569Z,99.90
2022-09-05T18:10:12.736Z,99.90
2022-09-05T18:13:31.755Z,99.90
2022-09-05T18:16:12.482Z,99.90
2022-09-05T18:19:33.703Z,99.90
2022-09-05T18:21:51.091Z,99.90
2022-09-05T18:24:33.348Z,99.90
2022-09-05T18:27:43.846Z,99.90
2022-09-05T18:30:12.232Z,99.90
2022-09-05T18:32:48.051Z,99.90
2022-09-05T18:35:37.497Z,99.90
2022-09-05T18:38:50.296Z,99.90
2022-09-05T18:41:25.275Z,99.90
2022-09-05T18:44:13.300Z,99.90
2022-09-05T18:46:54.929Z,99.90
2022-09-05T18:50:22.429Z,99.90
2022-09-05T18:52:23.744Z,99.90
2022-09-05T18:56:11.297Z,99.90
2022-09-05T18:57:58.979Z,99.90
2022-09-05T19:00:44.272Z,99.90
2022-09-05T19:03:24.868Z,99.90
2022-09-05T19:06:37.203Z,99.90
2022-09-05T19:08:57.197Z,99.90
2022-09-05T19:11:33.550Z,99.90
2022-09-05T19:14:26.351Z,99.90
2022-09-05T19:17:10.107Z,99.90
2022-09-05T19:20:31.384Z,99.90
2022-09-05T19:23:10.647Z,99.90
2022-09-05T19:25:44.899Z,99.90
2022-09-05T19:35:33.300Z,99.90
2022-09-05T19:36:55.080Z,99.90
2022-09-05T19:37:13.584Z,99.90
2022-09-05T19:37:30.443Z,99.90
2022-09-05T19:44:12.477Z,99.90
2022-09-05T19:47:37.193Z,99.90
2022-09-05T19:47:50.283Z,99.90
2022-09-05T19:48:28.351Z,99.90
2022-09-05T19:51:16.528Z,99.90
2022-09-05T19:54:01.338Z,99.90
2022-09-05T19:56:38.877Z,99.90
2022-09-05T19:59:18.818Z,99.90
2022-09-05T20:01:49.095Z,99.90
2022-09-05T20:04:19.063Z,99.90
2022-09-05T20:06:50.472Z,99.90
2022-09-05T20:09:24.032Z,99.90
2022-09-05T20:11:57.900Z,99.90
2022-09-05T20:14:30.697Z,99.90
2022-09-05T20:17:20.935Z,99.90
2022-09-05T20:19:51.195Z,99.90
2022-09-05T20:22:49.469Z,99.90
2022-09-05T20:25:36.706Z,99.90
2022-09-05T20:28:10.293Z,99.90
2022-09-05T20:30:45.000Z,99.90
2022-09-05T20:33:21.719Z,99.90
2022-09-05T20:43:10.885Z,99.90
2022-09-05T20:43:22.289Z,99.90
2022-09-05T20:43:24.001Z,99.90
2022-09-05T20:44:41.637Z,99.90
2022-09-05T20:54:08.100Z,99.90
2022-09-05T20:54:08.675Z,99.90
2022-09-05T20:54:14.521Z,99.90
2022-09-05T20:56:07.530Z,99.90
2022-09-05T20:58:40.156Z,99.90
2022-09-05T21:01:20.864Z,99.90
2022-09-05T21:03:57.465Z,99.90
2022-09-05T21:06:33.522Z,99.90
2022-09-05T21:09:24.485Z,99.90
2022-09-05T21:11:55.798Z,99.90
2022-09-05T21:14:29.697Z,99.90
2022-09-05T21:17:04.884Z,99.90
2022-09-05T21:19:54.194Z,99.90
2022-09-05T21:22:31.234Z,99.90
2022-09-05T21:25:18.511Z,99.90
2022-09-05T21:28:03.668Z,99.90
2022-09-05T21:30:36.908Z,99.90
2022-09-05T21:33:16.708Z,99.90
2022-09-05T21:35:50.633Z,99.90
2022-09-05T21:38:32.195Z,99.90
2022-09-05T21:41:03.135Z,99.90
2022-09-05T21:47:40.417Z,99.90
2022-09-05T21:47:48.740Z,99.90
2022-09-05T21:49:25.865Z,99.90
2022-09-05T21:51:55.301Z,99.90
2022-09-05T21:59:15.201Z,99.90
2022-09-05T21:59:16.154Z,99.90
2022-09-05T22:00:11.893Z,99.90
2022-09-05T22:02:49.808Z,99.90
2022-09-05T22:05:20.237Z,99.90
2022-09-05T22:07:53.520Z,99.90
2022-09-05T22:10:23.339Z,99.90
2022-09-05T22:13:09.390Z,99.90
2022-09-05T22:15:39.135Z,99.90
2022-09-05T22:18:17.344Z,99.90
2022-09-05T22:21:31.887Z,99.90
2022-09-05T22:23:45.461Z,99.90
2022-09-05T22:26:15.829Z,99.90
2022-09-05T22:28:49.088Z,99.90
2022-09-05T22:31:18.847Z,99.90
2022-09-05T22:33:51.237Z,99.90
2022-09-05T22:36:20.832Z,99.90
2022-09-05T22:38:50.244Z,99.90
2022-09-05T22:41:30.420Z,99.90
2022-09-05T22:44:00.666Z,99.90
2022-09-05T22:46:30.630Z,99.90
2022-09-05T22:49:01.419Z,99.90
2022-09-05T22:51:31.055Z,99.90
2022-09-05T22:54:00.467Z,99.90
2022-09-05T22:56:36.117Z,99.90
2022-09-05T22:59:06.560Z,99.90
2022-09-05T23:01:36.336Z,99.90
2022-09-05T23:04:07.467Z,99.90
2022-09-05T23:06:37.109Z,99.90
2022-09-05T23:09:06.551Z,99.90
2022-09-05T23:11:36.401Z,99.90
2022-09-05T23:14:05.836Z,99.90
2022-09-05T23:16:35.245Z,99.90
2022-09-05T23:19:06.038Z,99.90
2022-09-05T23:21:36.199Z,99.90
2022-09-05T23:24:06.043Z,99.90
2022-09-05T23:26:35.460Z,99.90
2022-09-05T23:29:05.031Z,99.90
2022-09-05T23:31:34.447Z,99.90
2022-09-05T23:34:03.910Z,99.90
2022-09-05T23:36:34.770Z,99.90
2022-09-05T23:39:04.303Z,99.90
2022-09-05T23:41:33.811Z,99.90
2022-09-05T23:44:03.989Z,99.90
2022-09-05T23:46:33.497Z,99.90
2022-09-05T23:49:02.909Z,99.90
2022-09-05T23:51:33.696Z,99.90
2022-09-05T23:54:03.147Z,99.90
2022-09-05T23:56:32.580Z,99.90
2022-09-05T23:59:02.048Z,99.90
